createdAt,value
2022-08-14T00:00:16.339Z,0.1
2022-08-14T00:02:16.388Z,0.1
2022-08-14T00:04:31.814Z,0.1
2022-08-14T00:06:25.996Z,0.1
2022-08-14T00:08:16.630Z,0.1
2022-08-14T00:10:50.552Z,0.1
2022-08-14T00:12:23.528Z,0.1
2022-08-14T00:14:17.371Z,0.1
2022-08-14T00:16:40.302Z,0.1
2022-08-14T00:18:30.291Z,0.1
2022-08-14T00:20:16.150Z,0.1
2022-08-14T00:22:21.983Z,0.1
2022-08-14T00:24:14.367Z,0.1
2022-08-14T00:26:21.533Z,0.1
2022-08-14T00:28:17.936Z,0.1
2022-08-14T00:30:23.311Z,0.1
2022-08-14T00:32:50.123Z,0.1
2022-08-14T00:34:35.596Z,0.1
2022-08-14T00:36:34.621Z,0.1
2022-08-14T00:38:16.150Z,0.1
2022-08-14T00:40:19.022Z,0.1
2022-08-14T00:42:21.123Z,0.1
2022-08-14T00:44:21.607Z,0.1
2022-08-14T00:46:23.309Z,0.1
2022-08-14T00:48:34.169Z,0.1
2022-08-14T00:50:17.699Z,0.1
2022-08-14T00:52:20.751Z,0.1
2022-08-14T00:54:20.920Z,0.1
2022-08-14T00:56:16.205Z,0.1
2022-08-14T00:58:16.386Z,0.1
2022-08-14T01:00:18.015Z,0.1
2022-08-14T01:02:16.427Z,0.1
2022-08-14T01:04:37.461Z,0.1
2022-08-14T01:06:16.306Z,0.1
2022-08-14T01:08:20.714Z,0.1
2022-08-14T01:10:16.452Z,0.1
2022-08-14T01:12:17.546Z,0.1
2022-08-14T01:14:18.360Z,0.1
2022-08-14T01:16:19.784Z,0.1
2022-08-14T01:18:16.237Z,0.1
2022-08-14T01:20:27.385Z,0.1
2022-08-14T01:22:18.712Z,0.1
2022-08-14T01:24:23.085Z,0.1
2022-08-14T01:26:23.416Z,0.1
2022-08-14T01:28:34.607Z,0.1
2022-08-14T01:30:16.898Z,0.1
2022-08-14T01:32:23.566Z,0.1
2022-08-14T01:35:16.358Z,0.1
2022-08-14T01:36:21.013Z,0.1
2022-08-14T01:38:16.522Z,0.1
2022-08-14T01:40:19.990Z,0.1
2022-08-14T01:42:30.857Z,0.1
2022-08-14T01:44:31.620Z,0.1
2022-08-14T01:46:24.255Z,0.1
2022-08-14T01:48:20.688Z,0.1
2022-08-14T01:50:16.485Z,0.1
2022-08-14T01:52:33.921Z,0.1
2022-08-14T01:54:19.715Z,0.1
2022-08-14T01:56:18.331Z,0.1
2022-08-14T01:58:19.085Z,0.1
2022-08-14T02:00:16.761Z,0.1
2022-08-14T02:02:20.115Z,0.1
2022-08-14T02:04:20.614Z,0.1
2022-08-14T02:06:32.747Z,0.1
2022-08-14T02:08:22.363Z,0.1
2022-08-14T02:10:16.587Z,0.1
2022-08-14T02:12:19.515Z,0.1
2022-08-14T02:14:16.239Z,0.1
2022-08-14T02:16:22.240Z,0.1
2022-08-14T02:18:16.319Z,0.1
2022-08-14T02:20:16.131Z,0.1
2022-08-14T02:22:16.120Z,0.1
2022-08-14T02:24:38.446Z,0.1
2022-08-14T02:26:18.347Z,0.1
2022-08-14T02:28:19.529Z,0.1
2022-08-14T02:30:23.389Z,0.1
2022-08-14T02:32:20.123Z,0.1
2022-08-14T02:34:20.230Z,0.1
2022-08-14T02:37:03.253Z,0.1
2022-08-14T02:38:29.789Z,0.1
2022-08-14T02:40:16.560Z,0.1
2022-08-14T02:42:16.339Z,0.1
2022-08-14T02:44:16.234Z,0.1
2022-08-14T02:46:20.268Z,0.1
2022-08-14T02:49:01.242Z,0.1
2022-08-14T02:50:16.125Z,0.1
2022-08-14T02:52:16.253Z,0.1
2022-08-14T02:56:30.996Z,0.1
2022-08-14T03:00:23.348Z,0.1
2022-08-14T03:02:33.644Z,0.1
2022-08-14T03:04:22.479Z,0.1
2022-08-14T03:06:20.490Z,0.1
2022-08-14T03:08:18.903Z,0.1
2022-08-14T03:10:25.451Z,0.1
2022-08-14T03:12:26.884Z,0.1
2022-08-14T03:14:17.969Z,0.1
2022-08-14T03:16:20.226Z,0.1
2022-08-14T03:18:19.643Z,0.1
2022-08-14T03:20:16.549Z,0.1
2022-08-14T03:22:17.481Z,0.2
2022-08-14T03:24:21.607Z,0.2
2022-08-14T03:26:18.120Z,0.3
2022-08-14T03:28:29.796Z,0.3
2022-08-14T03:30:16.099Z,0.4
2022-08-14T03:32:16.340Z,0.5
2022-08-14T03:34:24.505Z,0.7
2022-08-14T03:37:29.421Z,0.9
2022-08-14T03:39:11.300Z,1.3
2022-08-14T03:40:16.314Z,1.7
2022-08-14T03:42:19.537Z,2.3
2022-08-14T03:45:20.527Z,3.5
2022-08-14T03:46:39.360Z,4.7
2022-08-14T03:48:29.554Z,6.7
2022-08-14T03:50:18.050Z,9.5
2022-08-14T03:52:18.307Z,13.5
2022-08-14T03:54:20.512Z,18.2
2022-08-14T03:56:23.304Z,24.5
2022-08-14T03:58:17.614Z,33.1
2022-08-14T04:00:40.240Z,42.5
2022-08-14T04:02:32.109Z,54.6
2022-08-14T04:04:16.632Z,70.1
2022-08-14T04:06:21.019Z,90
2022-08-14T04:08:23.410Z,109.9
2022-08-14T04:10:17.189Z,134.3
2022-08-14T04:12:26.354Z,172.4
2022-08-14T04:14:16.542Z,200.3
2022-08-14T04:18:16.344Z,270.4
2022-08-14T04:20:16.410Z,298.9
2022-08-14T04:22:19.257Z,347.2
2022-08-14T04:24:16.274Z,383.8
2022-08-14T04:26:27.555Z,424.1
2022-08-14T04:29:01.683Z,468.7
2022-08-14T04:30:22.238Z,492.7
2022-08-14T04:32:57.129Z,544.6
2022-08-14T04:34:21.089Z,601.8
2022-08-14T04:36:19.712Z,632.7
2022-08-14T04:38:36.256Z,665.1
2022-08-14T04:40:16.234Z,699.2
2022-08-14T04:42:16.175Z,735.1
2022-08-14T04:44:26.444Z,772.8
2022-08-14T04:46:54.946Z,812.4
2022-08-14T04:48:40.124Z,854.1
2022-08-14T04:50:23.212Z,897.8
2022-08-14T04:52:19.157Z,943.9
2022-08-14T04:54:16.721Z,992.3
2022-08-14T04:56:30.270Z,1043.1
2022-08-14T04:58:21.402Z,1096.6
2022-08-14T05:00:22.750Z,1152.9
2022-08-14T05:02:16.461Z,1152.9
2022-08-14T05:04:16.557Z,1212
2022-08-14T05:06:34.829Z,1274.1
2022-08-14T05:08:31.631Z,1274.1
2022-08-14T05:10:21.911Z,1339.4
2022-08-14T05:13:08.365Z,1339.4
2022-08-14T05:14:34.509Z,1408.1
2022-08-14T05:16:19.597Z,1408.1
2022-08-14T05:18:17.872Z,1480.3
2022-08-14T05:21:04.599Z,1480.3
2022-08-14T05:22:18.919Z,1556.2
2022-08-14T05:24:17.612Z,1556.2
2022-08-14T05:26:19.573Z,1636
2022-08-14T05:28:16.610Z,1636
2022-08-14T05:30:16.712Z,1719.9
2022-08-14T05:32:16.453Z,1719.9
2022-08-14T05:34:19.719Z,1808
2022-08-14T05:36:16.556Z,1808
2022-08-14T05:38:22.491Z,1808
2022-08-14T05:40:16.291Z,1900.7
2022-08-14T05:42:21.413Z,1900.7
2022-08-14T05:44:16.300Z,1998.2
2022-08-14T05:46:16.201Z,1998.2
2022-08-14T05:48:23.382Z,1998.2
2022-08-14T05:50:17.720Z,2100.6
2022-08-14T05:52:26.537Z,2100.6
2022-08-14T05:54:26.812Z,2100.6
2022-08-14T05:56:16.172Z,2208.3
2022-08-14T05:58:19.702Z,2208.3
2022-08-14T06:00:24.636Z,2208.3
2022-08-14T06:02:16.404Z,2321.6
2022-08-14T06:06:16.470Z,2321.6
2022-08-14T06:08:21.639Z,2440.6
2022-08-14T06:10:16.337Z,2440.6
2022-08-14T06:12:31.185Z,2440.6
2022-08-14T06:14:21.198Z,2565.7
2022-08-14T06:16:17.616Z,2565.7
2022-08-14T06:18:17.523Z,2565.7
2022-08-14T06:20:16.420Z,2697.3
2022-08-14T06:22:16.215Z,3294.5
2022-08-14T06:24:19.634Z,4230.2
2022-08-14T06:26:16.284Z,4914.8
2022-08-14T06:28:27.094Z,5166.8
2022-08-14T06:30:23.468Z,5431.7
2022-08-14T06:32:36.982Z,5710.1
2022-08-14T06:35:05.146Z,5710.1
2022-08-14T06:36:19.689Z,6002.9
2022-08-14T06:38:23.281Z,6310.7
2022-08-14T06:40:26.149Z,6634.2
2022-08-14T06:42:32.766Z,6974.4
2022-08-14T06:44:19.763Z,6634.2
2022-08-14T06:46:22.350Z,4023.9
2022-08-14T06:48:17.196Z,3294.5
2022-08-14T06:50:19.731Z,3294.5
2022-08-14T06:52:16.286Z,3294.5
2022-08-14T06:54:16.462Z,3294.5
2022-08-14T06:56:16.321Z,3294.5
2022-08-14T06:58:24.938Z,3294.5
2022-08-14T07:00:22.378Z,3463.4
2022-08-14T07:02:19.711Z,3463.4
2022-08-14T07:04:18.924Z,3463.4
2022-08-14T07:06:21.321Z,3463.4
2022-08-14T07:08:19.670Z,3641
2022-08-14T07:10:16.724Z,3641
2022-08-14T07:12:35.156Z,3641
2022-08-14T07:14:16.611Z,3641
2022-08-14T07:16:16.370Z,3641
2022-08-14T07:18:16.283Z,3827.6
2022-08-14T07:20:18.822Z,3827.6
2022-08-14T07:22:22.846Z,3827.6
2022-08-14T07:24:21.419Z,3827.6
2022-08-14T07:26:16.147Z,3827.6
2022-08-14T07:28:20.284Z,4023.9
2022-08-14T07:30:33.536Z,4023.9
2022-08-14T07:32:20.160Z,4023.9
2022-08-14T07:34:26.281Z,4023.9
2022-08-14T07:36:26.774Z,4230.2
2022-08-14T07:38:16.555Z,4230.2
2022-08-14T07:40:22.083Z,4230.2
2022-08-14T07:42:16.284Z,4230.2
2022-08-14T07:44:29.829Z,4447.1
2022-08-14T07:46:21.090Z,4447.1
2022-08-14T07:48:16.518Z,4447.1
2022-08-14T07:50:20.140Z,4447.1
2022-08-14T07:52:22.059Z,4675.1
2022-08-14T07:54:16.601Z,4675.1
2022-08-14T07:56:22.168Z,4675.1
2022-08-14T07:58:30.710Z,4675.1
2022-08-14T08:02:17.206Z,4914.8
2022-08-14T08:04:16.874Z,4914.8
2022-08-14T08:06:19.712Z,4914.8
2022-08-14T08:08:26.455Z,4914.8
2022-08-14T08:10:16.180Z,4914.8
2022-08-14T08:12:16.170Z,5166.8
2022-08-14T08:14:16.578Z,5166.8
2022-08-14T08:16:16.488Z,5166.8
2022-08-14T08:18:20.287Z,5166.8
2022-08-14T08:20:16.870Z,5166.8
2022-08-14T08:22:16.424Z,5431.7
2022-08-14T08:24:20.904Z,5431.7
2022-08-14T08:26:16.173Z,5431.7
2022-08-14T08:28:19.956Z,5431.7
2022-08-14T08:30:16.164Z,5710.1
2022-08-14T08:32:19.786Z,5710.1
2022-08-14T08:34:19.592Z,5710.1
2022-08-14T08:36:18.579Z,5710.1
2022-08-14T08:39:14.376Z,5710.1
2022-08-14T08:42:16.318Z,6002.9
2022-08-14T08:44:17.121Z,6002.9
2022-08-14T08:46:21.847Z,6002.9
2022-08-14T08:48:20.800Z,6002.9
2022-08-14T08:50:22.921Z,6002.9
2022-08-14T08:52:24.810Z,6002.9
2022-08-14T08:54:18.797Z,6002.9
2022-08-14T08:56:16.939Z,6310.7
2022-08-14T08:58:20.381Z,6310.7
2022-08-14T09:00:24.804Z,6310.7
2022-08-14T09:02:16.403Z,6310.7
2022-08-14T09:04:17.493Z,6310.7
2022-08-14T09:06:57.052Z,6310.7
2022-08-14T09:08:26.766Z,6310.7
2022-08-14T09:10:18.709Z,6310.7
2022-08-14T09:12:16.433Z,6310.7
2022-08-14T09:14:16.187Z,6310.7
2022-08-14T09:16:18.929Z,6310.7
2022-08-14T09:18:19.728Z,6634.2
2022-08-14T09:20:19.318Z,6634.2
2022-08-14T09:22:33.150Z,6634.2
2022-08-14T09:24:27.840Z,6634.2
2022-08-14T09:26:23.381Z,6634.2
2022-08-14T09:28:16.741Z,6634.2
2022-08-14T09:30:30.811Z,6974.4
2022-08-14T09:32:26.989Z,6974.4
2022-08-14T09:34:19.961Z,6974.4
2022-08-14T09:36:16.278Z,6974.4
2022-08-14T09:40:16.852Z,6974.4
2022-08-14T09:42:17.960Z,6974.4
2022-08-14T09:44:20.872Z,6974.4
2022-08-14T09:46:16.905Z,6974.4
2022-08-14T09:48:19.548Z,6974.4
2022-08-14T09:50:16.146Z,6974.4
2022-08-14T09:52:23.863Z,6974.4
2022-08-14T09:54:19.722Z,6974.4
2022-08-14T09:58:19.527Z,6974.4
2022-08-14T10:00:28.355Z,6974.4
2022-08-14T10:02:14.454Z,6974.4
2022-08-14T10:04:22.008Z,6974.4
2022-08-14T10:06:19.848Z,6974.4
2022-08-14T10:08:25.696Z,6974.4
2022-08-14T10:10:23.268Z,6974.4
2022-08-14T10:12:19.021Z,6974.4
2022-08-14T10:14:29.227Z,6974.4
2022-08-14T10:16:22.025Z,6974.4
2022-08-14T10:18:17.875Z,6974.4
2022-08-14T10:20:39.221Z,7332
2022-08-14T10:23:11.581Z,7332
2022-08-14T10:24:19.877Z,7332
2022-08-14T10:26:22.529Z,7332
2022-08-14T10:28:29.211Z,7332
2022-08-14T10:30:22.290Z,7332
2022-08-14T10:32:17.558Z,7332
2022-08-14T10:34:16.349Z,7332
2022-08-14T10:36:16.471Z,7332
2022-08-14T10:40:37.091Z,7332
2022-08-14T10:42:18.430Z,7332
2022-08-14T10:44:20.785Z,7332
2022-08-14T10:46:22.182Z,7332
2022-08-14T10:48:23.461Z,7332
2022-08-14T10:50:16.234Z,7332
2022-08-14T10:54:35.596Z,7332
2022-08-14T10:56:21.322Z,7332
2022-08-14T10:58:17.224Z,7332
2022-08-14T11:00:20.352Z,7332
2022-08-14T11:02:16.417Z,7332
2022-08-14T11:04:16.495Z,7332
2022-08-14T11:06:16.447Z,7332
2022-08-14T11:08:16.388Z,7332
2022-08-14T11:12:33.555Z,7332
2022-08-14T11:14:19.520Z,7332
2022-08-14T11:16:16.462Z,7332
2022-08-14T11:18:20.198Z,7332
2022-08-14T11:20:16.656Z,7332
2022-08-14T11:22:53.032Z,6974.4
2022-08-14T11:24:50.352Z,6974.4
2022-08-14T11:26:16.418Z,6974.4
2022-08-14T11:28:46.521Z,6974.4
2022-08-14T11:30:49.566Z,6974.4
2022-08-14T11:32:16.240Z,6974.4
2022-08-14T11:34:30.136Z,7332
2022-08-14T11:36:17.167Z,7332
2022-08-14T11:40:14.213Z,6974.4
2022-08-14T11:42:57.467Z,6974.4
2022-08-14T11:44:46.129Z,6974.4
2022-08-14T11:46:29.462Z,6974.4
2022-08-14T11:48:58.916Z,7332
2022-08-14T11:50:25.267Z,6974.4
2022-08-14T11:52:19.565Z,6974.4
2022-08-14T11:54:20.078Z,6974.4
2022-08-14T11:56:16.296Z,6974.4
2022-08-14T11:58:23.968Z,6974.4
2022-08-14T12:00:19.450Z,6974.4
2022-08-14T12:02:39.245Z,6974.4
2022-08-14T12:04:21.487Z,6974.4
2022-08-14T12:06:28.256Z,6974.4
2022-08-14T12:08:16.205Z,6974.4
2022-08-14T12:10:25.851Z,6974.4
2022-08-14T12:12:35.388Z,7332
2022-08-14T12:14:29.644Z,7332
2022-08-14T12:16:20.532Z,7332
2022-08-14T12:18:19.411Z,7332
2022-08-14T12:20:16.320Z,7332
2022-08-14T12:22:17.623Z,7332
2022-08-14T12:24:32.015Z,7332
2022-08-14T12:26:32.305Z,7332
2022-08-14T12:28:26.893Z,7332
2022-08-14T12:32:19.357Z,7332
2022-08-14T12:34:20.242Z,7332
2022-08-14T12:36:20.614Z,7332
2022-08-14T12:38:19.628Z,7332
2022-08-14T12:40:19.544Z,7332
2022-08-14T12:42:27.535Z,7707.9
2022-08-14T12:44:16.675Z,7332
2022-08-14T12:46:22.510Z,7332
2022-08-14T12:48:20.572Z,7707.9
2022-08-14T12:50:16.335Z,7332
2022-08-14T12:52:17.099Z,7332
2022-08-14T12:54:19.457Z,7707.9
2022-08-14T12:56:18.207Z,7707.9
2022-08-14T12:58:29.159Z,7707.9
2022-08-14T13:00:22.326Z,7707.9
2022-08-14T13:02:19.600Z,7707.9
2022-08-14T13:06:16.411Z,7707.9
2022-08-14T13:08:33.165Z,7707.9
2022-08-14T13:10:48.071Z,7707.9
2022-08-14T13:12:31.604Z,7707.9
2022-08-14T13:14:17.140Z,7707.9
2022-08-14T13:16:20.680Z,8103.1
2022-08-14T13:18:16.188Z,7707.9
2022-08-14T13:22:19.604Z,7707.9
2022-08-14T13:24:19.678Z,7707.9
2022-08-14T13:26:16.351Z,8103.1
2022-08-14T13:28:22.868Z,7332
2022-08-14T13:30:23.353Z,7707.9
2022-08-14T13:32:19.705Z,7707.9
2022-08-14T13:34:16.252Z,7707.9
2022-08-14T13:36:23.780Z,7707.9
2022-08-14T13:38:19.866Z,7332
2022-08-14T13:40:16.428Z,7332
2022-08-14T13:42:23.391Z,7332
2022-08-14T13:46:16.313Z,7332
2022-08-14T13:48:27.244Z,6974.4
2022-08-14T13:50:20.501Z,6974.4
2022-08-14T13:52:48.628Z,6974.4
2022-08-14T13:54:19.796Z,7332
2022-08-14T13:56:26.410Z,6974.4
2022-08-14T13:58:30.094Z,6974.4
2022-08-14T14:00:17.931Z,6974.4
2022-08-14T14:02:31.777Z,6974.4
2022-08-14T14:04:17.980Z,6634.2
2022-08-14T14:06:16.197Z,6634.2
2022-08-14T14:08:18.627Z,6634.2
2022-08-14T14:10:16.374Z,6634.2
2022-08-14T14:12:36.411Z,6634.2
2022-08-14T14:14:29.440Z,6634.2
2022-08-14T14:16:21.934Z,6634.2
2022-08-14T14:18:30.009Z,6634.2
2022-08-14T14:20:34.840Z,6310.7
2022-08-14T14:22:35.289Z,6310.7
2022-08-14T14:24:16.426Z,6310.7
2022-08-14T14:26:18.887Z,6310.7
2022-08-14T14:28:16.386Z,6310.7
2022-08-14T14:30:29.410Z,6310.7
2022-08-14T14:32:17.417Z,6310.7
2022-08-14T14:34:20.193Z,6310.7
2022-08-14T14:36:16.731Z,6310.7
2022-08-14T14:38:23.001Z,6310.7
2022-08-14T14:40:51.059Z,6002.9
2022-08-14T14:42:18.089Z,6002.9
2022-08-14T14:44:19.853Z,6002.9
2022-08-14T14:46:16.499Z,6002.9
2022-08-14T14:48:16.192Z,6002.9
2022-08-14T14:50:17.129Z,6002.9
2022-08-14T14:52:23.599Z,6002.9
2022-08-14T14:56:48.571Z,5710.1
2022-08-14T14:58:20.436Z,5710.1
2022-08-14T15:00:18.497Z,5710.1
2022-08-14T15:02:16.317Z,5710.1
2022-08-14T15:04:19.770Z,5710.1
2022-08-14T15:06:19.569Z,5710.1
2022-08-14T15:08:16.815Z,5710.1
2022-08-14T15:10:26.657Z,5431.7
2022-08-14T15:12:27.887Z,5431.7
2022-08-14T15:14:54.139Z,5431.7
2022-08-14T15:16:17.257Z,5431.7
2022-08-14T15:18:37.691Z,5431.7
2022-08-14T15:20:17.111Z,5431.7
2022-08-14T15:22:22.919Z,5166.8
2022-08-14T15:24:20.810Z,5431.7
2022-08-14T15:26:23.549Z,5431.7
2022-08-14T15:30:23.521Z,5166.8
2022-08-14T15:32:19.867Z,5166.8
2022-08-14T15:34:34.032Z,5166.8
2022-08-14T15:36:26.291Z,5166.8
2022-08-14T15:38:19.753Z,5166.8
2022-08-14T15:40:22.246Z,4914.8
2022-08-14T15:42:19.678Z,4914.8
2022-08-14T15:44:18.772Z,4914.8
2022-08-14T15:46:25.194Z,4675.1
2022-08-14T15:48:22.449Z,4914.8
2022-08-14T15:50:16.363Z,4914.8
2022-08-14T15:52:32.300Z,4914.8
2022-08-14T15:54:16.425Z,4675.1
2022-08-14T15:56:20.834Z,4675.1
2022-08-14T15:58:16.463Z,4447.1
2022-08-14T16:02:19.407Z,4675.1
2022-08-14T16:04:17.399Z,4447.1
2022-08-14T16:06:17.567Z,4447.1
2022-08-14T16:10:28.793Z,4447.1
2022-08-14T16:12:16.208Z,4447.1
2022-08-14T16:14:20.569Z,4447.1
2022-08-14T16:16:34.231Z,4230.2
2022-08-14T16:18:19.398Z,4230.2
2022-08-14T16:20:41.178Z,4230.2
2022-08-14T16:22:57.106Z,4230.2
2022-08-14T16:24:27.098Z,4023.9
2022-08-14T16:28:26.977Z,4023.9
2022-08-14T16:30:20.462Z,3827.6
2022-08-14T16:32:32.288Z,3827.6
2022-08-14T16:34:22.878Z,3641
2022-08-14T16:36:17.290Z,3827.6
2022-08-14T16:38:19.967Z,3463.4
2022-08-14T16:40:16.375Z,3133.8
2022-08-14T16:42:39.588Z,2697.3
2022-08-14T16:44:21.418Z,2565.7
2022-08-14T16:46:16.272Z,2321.6
2022-08-14T16:48:54.564Z,2321.6
2022-08-14T16:50:40.297Z,2440.6
2022-08-14T16:52:25.256Z,2440.6
2022-08-14T16:54:34.752Z,2565.7
2022-08-14T16:58:16.268Z,2835.6
2022-08-14T17:00:19.605Z,2440.6
2022-08-14T17:02:14.493Z,2440.6
2022-08-14T17:04:24.613Z,2321.6
2022-08-14T17:06:30.978Z,1998.2
2022-08-14T17:08:33.178Z,1998.2
2022-08-14T17:10:17.169Z,2100.6
2022-08-14T17:12:28.777Z,1808
2022-08-14T17:14:16.463Z,1719.9
2022-08-14T17:16:24.181Z,1808
2022-08-14T17:18:30.925Z,1808
2022-08-14T17:20:39.317Z,1636
2022-08-14T17:22:19.898Z,1556.2
2022-08-14T17:24:51.812Z,1556.2
2022-08-14T17:26:19.362Z,1556.2
2022-08-14T17:28:49.777Z,1556.2
2022-08-14T17:30:32.082Z,1480.3
2022-08-14T17:32:19.332Z,1556.2
2022-08-14T17:34:19.950Z,1556.2
2022-08-14T17:36:20.913Z,1556.2
2022-08-14T17:40:16.393Z,1274.1
2022-08-14T17:42:16.408Z,1212
2022-08-14T17:44:19.797Z,1152.9
2022-08-14T17:46:17.714Z,1096.6
2022-08-14T17:49:10.302Z,1043.1
2022-08-14T17:50:59.094Z,1043.1
2022-08-14T17:52:17.715Z,943.9
2022-08-14T17:56:19.783Z,854.1
2022-08-14T17:58:22.778Z,735.1
2022-08-14T18:00:16.314Z,699.2
2022-08-14T18:02:19.757Z,632.7
2022-08-14T18:04:24.566Z,572.5
2022-08-14T18:06:38.796Z,544.6
2022-08-14T18:08:31.799Z,492.7
2022-08-14T18:10:32.173Z,445.9
2022-08-14T18:12:31.645Z,383.8
2022-08-14T18:14:20.777Z,347.2
2022-08-14T18:18:19.784Z,270.4
2022-08-14T18:21:25.125Z,244.7
2022-08-14T18:22:24.077Z,210.6
2022-08-14T18:24:19.817Z,181.3
2022-08-14T18:26:36.402Z,156
2022-08-14T18:28:18.154Z,127.7
2022-08-14T18:30:31.607Z,104.6
2022-08-14T18:32:16.402Z,85.6
2022-08-14T18:34:31.424Z,70.1
2022-08-14T18:36:46.935Z,57.4
2022-08-14T18:38:25.724Z,47
2022-08-14T18:40:19.454Z,36.6
2022-08-14T18:42:22.933Z,28.5
2022-08-14T18:44:16.228Z,22.2
2022-08-14T18:46:36.806Z,16.4
2022-08-14T18:48:18.076Z,12.2
2022-08-14T18:50:26.644Z,8.6
2022-08-14T18:52:19.682Z,6
2022-08-14T18:54:16.274Z,4.5
2022-08-14T18:56:18.318Z,3
2022-08-14T18:58:28.148Z,2.1
2022-08-14T19:00:19.789Z,1.5
2022-08-14T19:02:20.338Z,1.1
2022-08-14T19:04:16.230Z,0.7
2022-08-14T19:06:16.834Z,0.5
2022-08-14T19:08:22.036Z,0.4
2022-08-14T19:10:19.571Z,0.3
2022-08-14T19:12:16.202Z,0.2
2022-08-14T19:14:25.648Z,0.2
2022-08-14T19:16:22.668Z,0.1
2022-08-14T19:20:16.533Z,0
2022-08-14T19:22:20.521Z,0
2022-08-14T19:26:34.358Z,0
2022-08-14T19:28:27.504Z,0
2022-08-14T19:30:19.583Z,1
2022-08-14T19:32:16.389Z,1
2022-08-14T19:34:30.115Z,1
2022-08-14T19:36:21.966Z,1
2022-08-14T19:38:32.668Z,1
2022-08-14T19:40:20.202Z,1
2022-08-14T19:42:27.985Z,1
2022-08-14T19:44:16.777Z,1
2022-08-14T19:50:25.256Z,1
2022-08-14T19:52:17.391Z,1
2022-08-14T19:54:16.375Z,1
2022-08-14T19:56:29.223Z,1
2022-08-14T20:00:20.602Z,1
2022-08-14T20:02:20.715Z,1
2022-08-14T20:04:22.982Z,1
2022-08-14T20:06:22.960Z,1
2022-08-14T20:09:06.618Z,1
2022-08-14T20:11:01.737Z,1
2022-08-14T20:12:28.434Z,1
2022-08-14T20:14:27.889Z,1
2022-08-14T20:16:20.901Z,1
2022-08-14T20:18:39.229Z,1
2022-08-14T20:20:16.440Z,1
2022-08-14T20:22:36.058Z,1
2022-08-14T20:24:30.333Z,1
2022-08-14T20:28:29.192Z,1
2022-08-14T20:30:33.263Z,1
2022-08-14T20:32:19.848Z,1
2022-08-14T20:34:15.936Z,1
2022-08-14T20:36:22.114Z,1
2022-08-14T20:38:28.920Z,1
2022-08-14T20:40:23.682Z,1
2022-08-14T20:42:16.489Z,1
2022-08-14T20:44:20.861Z,1
2022-08-14T20:46:16.346Z,1
2022-08-14T20:48:16.491Z,1
2022-08-14T20:50:25.078Z,1
2022-08-14T20:52:19.356Z,1
2022-08-14T20:54:16.505Z,1
2022-08-14T20:56:29.163Z,1
2022-08-14T20:58:38.321Z,1
2022-08-14T21:00:16.548Z,1
2022-08-14T21:02:24.227Z,1
2022-08-14T21:04:19.841Z,1
2022-08-14T21:06:17.471Z,1
2022-08-14T21:08:22.250Z,1
2022-08-14T21:10:34.322Z,1
2022-08-14T21:12:33.344Z,1
2022-08-14T21:14:20.353Z,1
2022-08-14T21:16:26.082Z,1
2022-08-14T21:18:23.066Z,1
2022-08-14T21:20:21.453Z,1
2022-08-14T21:22:16.490Z,1
2022-08-14T21:24:22.870Z,1
2022-08-14T21:26:50.713Z,1
2022-08-14T21:28:27.705Z,1
2022-08-14T21:30:20.399Z,1
2022-08-14T21:32:20.422Z,1
2022-08-14T21:34:27.030Z,1
2022-08-14T21:36:21.077Z,1
2022-08-14T21:38:16.845Z,1
2022-08-14T21:40:41.370Z,1
2022-08-14T21:42:17.447Z,1
2022-08-14T21:44:17.329Z,1
2022-08-14T21:46:19.881Z,0
2022-08-14T21:48:19.377Z,0
2022-08-14T21:50:40.011Z,0
2022-08-14T21:52:50.047Z,0
2022-08-14T21:54:30.520Z,0
2022-08-14T21:56:16.483Z,0
2022-08-14T21:58:51.571Z,0
2022-08-14T22:00:30.668Z,0
2022-08-14T22:02:32.418Z,1
2022-08-14T22:04:32.300Z,1
2022-08-14T22:06:17.334Z,1
2022-08-14T22:08:16.438Z,1
2022-08-14T22:10:22.822Z,1
2022-08-14T22:12:45.597Z,1
2022-08-14T22:14:25.707Z,1
2022-08-14T22:17:00.340Z,1
2022-08-14T22:18:19.826Z,1
2022-08-14T22:20:16.676Z,1
2022-08-14T22:22:19.695Z,1
2022-08-14T22:24:26.052Z,1
2022-08-14T22:26:21.972Z,1
2022-08-14T22:28:16.463Z,1
2022-08-14T22:30:23.043Z,1
2022-08-14T22:32:17.990Z,0
2022-08-14T22:34:16.504Z,0
2022-08-14T22:36:24.929Z,0
2022-08-14T22:38:35.188Z,1
2022-08-14T22:40:18.194Z,1
2022-08-14T22:42:19.407Z,1
2022-08-14T22:44:19.944Z,1
2022-08-14T22:46:23.076Z,1
2022-08-14T22:48:16.220Z,1
2022-08-14T22:50:28.650Z,1
2022-08-14T22:52:32.345Z,1
2022-08-14T22:54:51.470Z,1
2022-08-14T22:56:19.963Z,1
2022-08-14T22:58:30.768Z,1
2022-08-14T23:00:16.603Z,1
2022-08-14T23:02:19.365Z,1
2022-08-14T23:04:34.604Z,1
2022-08-14T23:07:01.839Z,1
2022-08-14T23:08:57.397Z,1
2022-08-14T23:12:28.135Z,1
2022-08-14T23:14:23.664Z,1
2022-08-14T23:16:20.663Z,1
2022-08-14T23:18:22.265Z,1
2022-08-14T23:20:18.663Z,1
2022-08-14T23:22:16.819Z,1
2022-08-14T23:24:27.171Z,1
2022-08-14T23:26:47.585Z,1
2022-08-14T23:28:33.125Z,1
2022-08-14T23:30:31.277Z,1
2022-08-14T23:32:19.057Z,1
2022-08-14T23:34:20.252Z,1
2022-08-14T23:36:28.660Z,1
2022-08-14T23:38:24.665Z,1
2022-08-14T23:40:26.291Z,1
2022-08-14T23:42:19.792Z,1
2022-08-14T23:44:16.248Z,1
2022-08-14T23:46:16.338Z,1
2022-08-14T23:48:19.571Z,1
2022-08-14T23:50:33.933Z,1
2022-08-14T23:52:49.916Z,1
2022-08-14T23:54:47.726Z,1
2022-08-14T23:56:19.949Z,1
2022-08-14T23:58:21.349Z,1
